createdAt,value
2018-09-08T00:00:24.261Z,100525.00
2018-09-08T00:05:27.836Z,100526.00
2018-09-08T00:10:31.298Z,100525.00
2018-09-08T00:15:40.073Z,100531.00
2018-09-08T00:20:48.916Z,100529.00
2018-09-08T00:25:57.668Z,100523.00
2018-09-08T00:31:01.626Z,100519.00
2018-09-08T00:36:04.984Z,100524.00
2018-09-08T00:41:08.069Z,100532.00
2018-09-08T00:46:11.353Z,100527.00
2018-09-08T00:51:14.568Z,100538.00
2018-09-08T00:56:17.588Z,100534.00
2018-09-08T01:01:20.610Z,100546.00
2018-09-08T01:06:23.877Z,100542.00
2018-09-08T01:11:26.882Z,100545.00
2018-09-08T01:16:30.105Z,100548.00
2018-09-08T01:21:33.329Z,100558.00
2018-09-08T01:26:36.348Z,100564.00
2018-09-08T01:31:39.400Z,100568.00
2018-09-08T01:36:42.454Z,100567.00
2018-09-08T01:41:45.730Z,100564.00
2018-09-08T01:46:48.672Z,100550.00
2018-09-08T01:51:51.683Z,100562.00
2018-09-08T01:56:54.909Z,100564.00
2018-09-08T02:01:57.914Z,100572.00
2018-09-08T02:07:01.393Z,100583.00
2018-09-08T02:12:04.719Z,100570.00
2018-09-08T02:17:07.730Z,100582.00
2018-09-08T02:22:10.763Z,100576.00
2018-09-08T02:27:13.748Z,100569.00
2018-09-08T02:32:16.727Z,100574.00
2018-09-08T02:37:19.721Z,100567.00
2018-09-08T02:42:22.904Z,100575.00
2018-09-08T02:47:25.877Z,100577.00
2018-09-08T02:52:27.349Z,100563.00
2018-09-08T02:57:28.830Z,100569.00
2018-09-08T03:02:30.257Z,100573.00
2018-09-08T03:07:31.896Z,100577.00
2018-09-08T03:12:33.337Z,100587.00
2018-09-08T03:17:34.795Z,100597.00
2018-09-08T03:22:36.264Z,100595.00
2018-09-08T03:27:37.728Z,100592.00
2018-09-08T03:32:39.328Z,100602.00
2018-09-08T03:37:40.790Z,100586.00
2018-09-08T03:42:42.469Z,100586.00
2018-09-08T03:47:43.917Z,100591.00
2018-09-08T03:52:45.408Z,100582.00
2018-09-08T03:57:46.847Z,100582.00
2018-09-08T04:02:49.799Z,100587.00
2018-09-08T04:07:52.965Z,100592.00
2018-09-08T04:12:56.000Z,100602.00
2018-09-08T04:17:59.059Z,100606.00
2018-09-08T04:23:02.817Z,100599.00
2018-09-08T04:28:05.775Z,100602.00
2018-09-08T04:33:08.974Z,100618.00
2018-09-08T04:38:12.215Z,100622.00
2018-09-08T04:43:15.318Z,100637.00
2018-09-08T04:48:18.371Z,100635.00
2018-09-08T04:53:21.978Z,100634.00
2018-09-08T04:58:25.697Z,100641.00
2018-09-08T05:03:28.754Z,100643.00
2018-09-08T05:08:31.759Z,100648.00
2018-09-08T05:13:34.697Z,100646.00
2018-09-08T05:18:37.919Z,100650.00
2018-09-08T05:23:41.125Z,100647.00
2018-09-08T05:28:44.124Z,100667.00
2018-09-08T05:33:47.213Z,100687.00
2018-09-08T05:38:50.174Z,100690.00
2018-09-08T05:43:53.549Z,100691.00
2018-09-08T05:48:56.556Z,100689.00
2018-09-08T05:53:59.709Z,100699.00
2018-09-08T05:59:04.876Z,100733.00
2018-09-08T06:04:08.831Z,100731.00
2018-09-08T06:09:11.832Z,100733.00
2018-09-08T06:14:14.845Z,100752.00
2018-09-08T06:19:17.889Z,100762.00
2018-09-08T06:24:21.041Z,100758.00
2018-09-08T06:29:24.139Z,100759.00
2018-09-08T06:34:27.184Z,100755.00
2018-09-08T06:39:30.416Z,100764.00
2018-09-08T06:44:33.490Z,100764.00
2018-09-08T06:49:36.460Z,100771.00
2018-09-08T06:54:39.879Z,100770.00
2018-09-08T06:59:42.975Z,100770.00
2018-09-08T07:04:45.900Z,100784.00
2018-09-08T07:09:49.220Z,100785.00
2018-09-08T07:14:52.245Z,100794.00
2018-09-08T07:19:55.199Z,100796.00
2018-09-08T07:24:58.266Z,100784.00
2018-09-08T07:30:01.731Z,100792.00
2018-09-08T07:35:04.773Z,100806.00
2018-09-08T07:40:07.850Z,100798.00
2018-09-08T07:45:11.078Z,100801.00
2018-09-08T07:50:14.284Z,100804.00
2018-09-08T07:55:18.093Z,100805.00
2018-09-08T08:00:21.322Z,100821.00
2018-09-08T08:05:24.644Z,100810.00
2018-09-08T08:10:27.832Z,100800.00
2018-09-08T08:15:31.058Z,100801.00
2018-09-08T08:20:34.123Z,100808.00
2018-09-08T08:25:37.206Z,100813.00
2018-09-08T08:30:41.096Z,100803.00
2018-09-08T08:35:44.627Z,100810.00
2018-09-08T08:40:47.897Z,100820.00
2018-09-08T08:45:51.118Z,100807.00
2018-09-08T08:51:11.365Z,100798.00
2018-09-08T08:56:14.487Z,100791.00
2018-09-08T09:01:17.784Z,100791.00
2018-09-08T09:06:21.721Z,100793.00
2018-09-08T09:11:25.575Z,100791.00
2018-09-08T09:16:28.928Z,100787.00
2018-09-08T09:21:49.546Z,100789.00
2018-09-08T09:26:52.881Z,100792.00
2018-09-08T09:31:56.063Z,100773.00
2018-09-08T09:36:59.204Z,100770.00
2018-09-08T09:42:03.497Z,100765.00
2018-09-08T09:47:06.787Z,100749.00
2018-09-08T09:52:09.884Z,100768.00
2018-09-08T09:57:13.026Z,100751.00
2018-09-08T10:02:47.205Z,100763.00
2018-09-08T10:07:51.264Z,100767.00
2018-09-08T10:12:54.341Z,100761.00
2018-09-08T10:17:57.448Z,100754.00
2018-09-08T10:23:03.093Z,100754.00
2018-09-08T10:28:06.235Z,100746.00
2018-09-08T10:33:09.719Z,100739.00
2018-09-08T10:38:12.794Z,100735.00
2018-09-08T10:43:16.058Z,100735.00
2018-09-08T10:48:19.185Z,100739.00
2018-09-08T10:53:22.652Z,100734.00
2018-09-08T10:58:25.979Z,100731.00
2018-09-08T11:03:29.275Z,100730.00
2018-09-08T11:08:33.713Z,100735.00
2018-09-08T11:13:37.033Z,100735.00
2018-09-08T11:18:40.152Z,100723.00
2018-09-08T11:23:43.298Z,100708.00
2018-09-08T11:28:47.020Z,100721.00
2018-09-08T11:33:50.280Z,100718.00
2018-09-08T11:38:53.771Z,100739.00
2018-09-08T11:43:57.007Z,100731.00
2018-09-08T11:49:00.413Z,100722.00
2018-09-08T11:54:05.124Z,100723.00
2018-09-08T11:59:08.457Z,100719.00
2018-09-08T12:04:11.573Z,100717.00
2018-09-08T12:09:14.983Z,100714.00
2018-09-08T12:14:18.147Z,100706.00
2018-09-08T12:19:21.507Z,100718.00
2018-09-08T12:24:24.815Z,100701.00
2018-09-08T12:29:28.025Z,100693.00
2018-09-08T12:34:31.337Z,100693.00
2018-09-08T12:39:34.415Z,100692.00
2018-09-08T12:44:37.723Z,100692.00
2018-09-08T12:49:40.908Z,100691.00
2018-09-08T12:54:44.475Z,100678.00
2018-09-08T12:59:47.788Z,100680.00
2018-09-08T13:04:50.885Z,100692.00
2018-09-08T13:09:54.006Z,100691.00
2018-09-08T13:14:57.195Z,100685.00
2018-09-08T13:20:00.285Z,100684.00
2018-09-08T13:25:05.434Z,100663.00
2018-09-08T13:30:08.550Z,100655.00
2018-09-08T13:35:11.791Z,100661.00
2018-09-08T13:40:14.863Z,100658.00
2018-09-08T13:45:17.955Z,100650.00
2018-09-08T13:50:21.086Z,100656.00
2018-09-08T13:55:24.463Z,100653.00
2018-09-08T14:00:27.713Z,100655.00
2018-09-08T14:10:39.952Z,100644.00
2018-09-08T14:15:43.287Z,100645.00
2018-09-08T14:20:46.553Z,100647.00
2018-09-08T14:25:49.655Z,100651.00
2018-09-08T14:30:52.919Z,100644.00
2018-09-08T14:35:56.220Z,100645.00
2018-09-08T14:40:59.460Z,100636.00
2018-09-08T14:46:04.061Z,100633.00
2018-09-08T14:51:07.156Z,100636.00
2018-09-08T14:56:10.518Z,100640.00
2018-09-08T15:01:13.646Z,100641.00
2018-09-08T15:06:17.235Z,100635.00
2018-09-08T15:11:20.369Z,100624.00
2018-09-08T15:16:23.760Z,100626.00
2018-09-08T15:21:26.883Z,100639.00
2018-09-08T15:26:30.057Z,100638.00
2018-09-08T15:31:33.052Z,100627.00
2018-09-08T15:36:36.109Z,100635.00
2018-09-08T15:41:39.481Z,100637.00
2018-09-08T15:46:42.649Z,100632.00
2018-09-08T15:51:45.804Z,100633.00
2018-09-08T15:56:48.904Z,100618.00
2018-09-08T16:01:51.991Z,100622.00
2018-09-08T16:06:55.326Z,100623.00
2018-09-08T16:11:58.656Z,100620.00
2018-09-08T16:17:02.808Z,100620.00
2018-09-08T16:22:05.901Z,100624.00
2018-09-08T16:27:09.092Z,100623.00
2018-09-08T16:32:12.275Z,100611.00
2018-09-08T16:37:15.618Z,100607.00
2018-09-08T16:42:18.705Z,100609.00
2018-09-08T16:47:21.775Z,100606.00
2018-09-08T16:52:25.162Z,100611.00
2018-09-08T16:57:28.507Z,100605.00
2018-09-08T17:02:31.703Z,100605.00
2018-09-08T17:07:34.882Z,100598.00
2018-09-08T17:12:38.059Z,100604.00
2018-09-08T17:17:41.099Z,100602.00
2018-09-08T17:22:44.263Z,100595.00
2018-09-08T17:27:47.267Z,100590.00
2018-09-08T17:32:50.342Z,100596.00
2018-09-08T17:37:53.415Z,100600.00
2018-09-08T17:42:57.584Z,100604.00
2018-09-08T17:48:02.707Z,100600.00
2018-09-08T17:53:06.581Z,100594.00
2018-09-08T17:58:09.744Z,100586.00
2018-09-08T18:03:12.828Z,100591.00
2018-09-08T18:08:23.320Z,100582.00
2018-09-08T18:13:26.540Z,100590.00
2018-09-08T18:18:29.930Z,100590.00
2018-09-08T18:23:32.969Z,100592.00
2018-09-08T18:28:36.153Z,100588.00
2018-09-08T18:33:39.208Z,100586.00
2018-09-08T18:38:42.344Z,100577.00
2018-09-08T18:43:45.443Z,100582.00
2018-09-08T18:48:48.513Z,100591.00
2018-09-08T18:53:51.721Z,100588.00
2018-09-08T18:58:54.963Z,100588.00
2018-09-08T19:03:58.418Z,100587.00
2018-09-08T19:09:03.745Z,100591.00
2018-09-08T19:14:11.444Z,100590.00
2018-09-08T19:19:14.546Z,100593.00
2018-09-08T19:24:24.352Z,100589.00
2018-09-08T19:29:33.058Z,100591.00
2018-09-08T19:34:36.396Z,100581.00
2018-09-08T19:39:39.512Z,100578.00
2018-09-08T19:44:42.680Z,100583.00
2018-09-08T19:49:45.853Z,100582.00
2018-09-08T19:54:48.982Z,100587.00
2018-09-08T19:59:52.138Z,100583.00
2018-09-08T20:04:55.262Z,100582.00
2018-09-08T20:09:58.549Z,100596.00
2018-09-08T20:15:02.833Z,100587.00
2018-09-08T20:20:06.471Z,100581.00
2018-09-08T20:25:09.521Z,100570.00
2018-09-08T20:30:12.639Z,100577.00
2018-09-08T20:35:15.756Z,100577.00
2018-09-08T20:40:19.045Z,100571.00
2018-09-08T20:45:22.216Z,100578.00
2018-09-08T20:50:25.406Z,100577.00
2018-09-08T20:55:28.669Z,100578.00
2018-09-08T21:00:31.832Z,100564.00
2018-09-08T21:05:34.967Z,100577.00
2018-09-08T21:10:38.087Z,100563.00
2018-09-08T21:15:41.216Z,100570.00
2018-09-08T21:20:44.318Z,100565.00
2018-09-08T21:25:47.719Z,100579.00
2018-09-08T21:30:50.864Z,100586.00
2018-09-08T21:35:54.047Z,100571.00
2018-09-08T21:40:57.125Z,100587.00
2018-09-08T21:46:00.185Z,100589.00
2018-09-08T21:51:05.651Z,100591.00
2018-09-08T21:56:08.761Z,100593.00
2018-09-08T22:01:17.503Z,100593.00
2018-09-08T22:06:21.107Z,100599.00
2018-09-08T22:11:24.202Z,100611.00
2018-09-08T22:16:27.506Z,100607.00
2018-09-08T22:21:30.554Z,100603.00
2018-09-08T22:26:33.684Z,100604.00
2018-09-08T22:31:36.845Z,100606.00
2018-09-08T22:36:39.907Z,100602.00
2018-09-08T22:41:42.914Z,100596.00
2018-09-08T22:46:45.972Z,100601.00
2018-09-08T22:51:49.214Z,100590.00
2018-09-08T22:56:52.468Z,100599.00
2018-09-08T23:01:55.472Z,100604.00
2018-09-08T23:06:58.677Z,100611.00
2018-09-08T23:12:04.202Z,100616.00
2018-09-08T23:17:07.495Z,100615.00
2018-09-08T23:22:10.556Z,100624.00
2018-09-08T23:27:13.639Z,100615.00
2018-09-08T23:32:16.856Z,100615.00
2018-09-08T23:37:19.877Z,100618.00
2018-09-08T23:42:22.880Z,100617.00
2018-09-08T23:47:25.899Z,100618.00
2018-09-08T23:52:28.976Z,100623.00
2018-09-08T23:57:32.120Z,100618.00
